• Join FlightAware (Why Join?)
  • Login
  • US Flag 
09:24AM EDT


 

Airport Tracker/Info


-or-


 

Live Flight TrackerFlight Track Log ✈ UAL3822 ✈ 02-May-2013 ✈ KEWR - KBDL

Flight Track Log - Related Links

Times and Time Zones

All times are in EDT time to prevent confusion due to time zone crossing. See the UAL3822 flight status page for this flight to view local times or setup timezone preferences in your user account.

Time Position Orientation Groundspeed Altitude Reporting Facility
EDT Latitude Longitude Course Direction KTS MPH feet Rate Location/Type
07:53AM 40.7500 -74.1167 59° Northeast 214 246 2,700  Level New York TRACON
07:54AM 40.8000 -74.0667 37° Northeast 240 276 5,300 2,520 Climbing New York TRACON
07:54AM 40.8500 -74.0167 37° Northeast 248 285 7,600 2,460 Climbing New York TRACON
07:55AM 40.9000 -73.9500 45° Northeast 255 293 10,000 1,200 Climbing New York TRACON
07:56AM 40.9500 -73.8667 52° Northeast 325 374 10,000  Level New York TRACON
07:57AM 41.0167 -73.7833 43° Northeast 315 362 10,000  Level New York TRACON
07:58AM 40.8969 -73.6773 59° Northeast  Level FlightAware Approximate
07:58AM 41.0667 -73.6667 60° Northeast 425 489 10,000  Level New York TRACON
07:59AM 41.0833 -73.5667 78° East 304 350 10,000  Level New York TRACON
08:00AM 41.1500 -73.5000 37° Northeast 310 357 10,000  Level New York TRACON
08:01AM 41.2167 -73.4333 37° Northeast 311 358 10,000  Level New York TRACON
08:02AM 41.3000 -73.3500 37° Northeast 331 381 10,000  Level New York TRACON
08:03AM 41.3131 -73.3356 40° Northeast 332 382 10,000  Level Boston Center
08:04AM 41.3803 -73.2672 37° Northeast 332 382 10,000  Level Boston Center
08:05AM 41.4497 -73.1961 37° Northeast 317 365 10,000  Level Boston Center
08:06AM 41.5189 -73.1250 38° Northeast 311 358 10,000 -660 Level Boston Center
08:07AM 41.5775 -73.0644 38° Northeast 257 296 8,700 -1,500 Descending Boston Center
08:08AM 41.6319 -73.0094 37° Northeast 242 278 7,000 -1,800 Descending Boston Center
08:09AM 41.6864 -72.9517 38° Northeast 239 275 5,100 -1,860 Descending Boston Center
08:10AM 41.7367 -72.8992 38° Northeast 239 275 3,300 -1,080 Descending Boston Center
08:11AM 41.7931 -72.8606 27° Northeast 230 265 3,000 -480 Descending Boston Center
08:12AM 41.8558 -72.8025 35° Northeast 234 269 2,400 -840 Descending Boston Center
08:13AM 41.8956 -72.7497 45° Northeast 205 236 1,300 -960 Descending Boston Center
08:14AM 41.9228 -72.7136 45° Northeast 142 163 500 -840 Descending Boston Center
08:16AM 41.9333 -72.6833 37° Northeast  Level FlightAware Approximate